sensor_id;sensor_type;location;lat;lon;timestamp;P1;durP1;ratioP1;P2;durP2;ratioP2
18364;SDS011;9309;52.126;11.616;2023-02-28T00:01:07;7.40;;;6.17;;
18364;SDS011;9309;52.126;11.616;2023-02-28T00:03:33;7.77;;;6.60;;
18364;SDS011;9309;52.126;11.616;2023-02-28T00:06:00;8.40;;;6.50;;
18364;SDS011;9309;52.126;11.616;2023-02-28T00:08:28;10.63;;;6.57;;
18364;SDS011;9309;52.126;11.616;2023-02-28T00:10:56;7.83;;;6.17;;
18364;SDS011;9309;52.126;11.616;2023-02-28T00:13:26;9.97;;;7.67;;
18364;SDS011;9309;52.126;11.616;2023-02-28T00:16:00;9.57;;;6.53;;
18364;SDS011;9309;52.126;11.616;2023-02-28T00:18:27;8.53;;;6.47;;
18364;SDS011;9309;52.126;11.616;2023-02-28T00:20:54;7.77;;;6.53;;
18364;SDS011;9309;52.126;11.616;2023-02-28T00:23:21;7.93;;;7.13;;
18364;SDS011;9309;52.126;11.616;2023-02-28T00:25:47;9.10;;;6.17;;
18364;SDS011;9309;52.126;11.616;2023-02-28T00:28:16;10.13;;;6.60;;
18364;SDS011;9309;52.126;11.616;2023-02-28T00:30:42;8.57;;;6.30;;
18364;SDS011;9309;52.126;11.616;2023-02-28T00:33:10;10.10;;;6.67;;
18364;SDS011;9309;52.126;11.616;2023-02-28T00:35:36;7.97;;;6.47;;
18364;SDS011;9309;52.126;11.616;2023-02-28T00:38:03;11.20;;;6.40;;
18364;SDS011;9309;52.126;11.616;2023-02-28T00:40:30;12.57;;;7.17;;
18364;SDS011;9309;52.126;11.616;2023-02-28T00:42:57;12.40;;;7.03;;
18364;SDS011;9309;52.126;11.616;2023-02-28T00:45:25;7.73;;;6.70;;
18364;SDS011;9309;52.126;11.616;2023-02-28T00:47:52;11.57;;;7.00;;
18364;SDS011;9309;52.126;11.616;2023-02-28T00:50:19;13.33;;;7.13;;
18364;SDS011;9309;52.126;11.616;2023-02-28T00:52:46;10.73;;;6.87;;
18364;SDS011;9309;52.126;11.616;2023-02-28T00:55:13;10.73;;;6.73;;
18364;SDS011;9309;52.126;11.616;2023-02-28T00:57:40;9.70;;;6.87;;
18364;SDS011;9309;52.126;11.616;2023-02-28T01:00:08;13.23;;;7.60;;
18364;SDS011;9309;52.126;11.616;2023-02-28T01:02:37;9.00;;;7.80;;
18364;SDS011;9309;52.126;11.616;2023-02-28T01:05:04;9.77;;;7.10;;
18364;SDS011;9309;52.126;11.616;2023-02-28T01:07:31;13.10;;;7.23;;
18364;SDS011;9309;52.126;11.616;2023-02-28T01:09:58;11.10;;;6.97;;
18364;SDS011;9309;52.126;11.616;2023-02-28T01:12:24;8.30;;;6.20;;
18364;SDS011;9309;52.126;11.616;2023-02-28T01:14:51;9.43;;;7.37;;
18364;SDS011;9309;52.126;11.616;2023-02-28T01:17:20;8.03;;;7.00;;
18364;SDS011;9309;52.126;11.616;2023-02-28T01:19:48;11.73;;;7.30;;
18364;SDS011;9309;52.126;11.616;2023-02-28T01:22:15;15.93;;;7.73;;
18364;SDS011;9309;52.126;11.616;2023-02-28T01:24:41;10.17;;;7.10;;
18364;SDS011;9309;52.126;11.616;2023-02-28T01:27:11;16.57;;;7.23;;
18364;SDS011;9309;52.126;11.616;2023-02-28T01:29:38;11.43;;;7.10;;
18364;SDS011;9309;52.126;11.616;2023-02-28T01:32:04;11.33;;;7.63;;
18364;SDS011;9309;52.126;11.616;2023-02-28T01:34:31;11.10;;;7.20;;
18364;SDS011;9309;52.126;11.616;2023-02-28T01:36:59;12.17;;;7.53;;
18364;SDS011;9309;52.126;11.616;2023-02-28T01:39:27;9.53;;;6.80;;
18364;SDS011;9309;52.126;11.616;2023-02-28T01:41:55;10.10;;;7.50;;
18364;SDS011;9309;52.126;11.616;2023-02-28T01:47:21;10.33;;;7.17;;
18364;SDS011;9309;52.126;11.616;2023-02-28T01:49:50;10.93;;;7.03;;
18364;SDS011;9309;52.126;11.616;2023-02-28T01:52:18;12.60;;;7.10;;
18364;SDS011;9309;52.126;11.616;2023-02-28T01:54:46;8.00;;;7.20;;
18364;SDS011;9309;52.126;11.616;2023-02-28T01:57:18;10.73;;;7.07;;
18364;SDS011;9309;52.126;11.616;2023-02-28T01:59:49;8.83;;;6.77;;
18364;SDS011;9309;52.126;11.616;2023-02-28T02:02:20;12.83;;;7.10;;
18364;SDS011;9309;52.126;11.616;2023-02-28T02:04:50;9.83;;;7.03;;
18364;SDS011;9309;52.126;11.616;2023-02-28T02:07:21;10.57;;;6.57;;
18364;SDS011;9309;52.126;11.616;2023-02-28T02:09:56;13.10;;;6.87;;
18364;SDS011;9309;52.126;11.616;2023-02-28T02:12:28;13.93;;;6.93;;
18364;SDS011;9309;52.126;11.616;2023-02-28T02:15:05;9.80;;;6.70;;
18364;SDS011;9309;52.126;11.616;2023-02-28T02:17:38;7.30;;;6.47;;
18364;SDS011;9309;52.126;11.616;2023-02-28T02:23:23;11.37;;;6.40;;
18364;SDS011;9309;52.126;11.616;2023-02-28T02:26:07;10.23;;;6.10;;
18364;SDS011;9309;52.126;11.616;2023-02-28T02:28:56;8.10;;;6.50;;
18364;SDS011;9309;52.126;11.616;2023-02-28T02:31:54;7.57;;;6.77;;
18364;SDS011;9309;52.126;11.616;2023-02-28T02:34:39;9.53;;;6.80;;
18364;SDS011;9309;52.126;11.616;2023-02-28T02:37:15;8.37;;;6.37;;
18364;SDS011;9309;52.126;11.616;2023-02-28T02:39:50;11.07;;;6.57;;
18364;SDS011;9309;52.126;11.616;2023-02-28T02:42:21;12.13;;;6.50;;
18364;SDS011;9309;52.126;11.616;2023-02-28T02:44:55;6.70;;;6.00;;
18364;SDS011;9309;52.126;11.616;2023-02-28T02:47:27;11.43;;;6.40;;
18364;SDS011;9309;52.126;11.616;2023-02-28T02:49:59;8.27;;;6.87;;
18364;SDS011;9309;52.126;11.616;2023-02-28T02:52:33;7.60;;;5.93;;
18364;SDS011;9309;52.126;11.616;2023-02-28T02:55:04;8.73;;;7.00;;
18364;SDS011;9309;52.126;11.616;2023-02-28T02:57:36;10.47;;;6.43;;
18364;SDS011;9309;52.126;11.616;2023-02-28T03:00:06;10.43;;;6.60;;
18364;SDS011;9309;52.126;11.616;2023-02-28T03:02:34;8.83;;;6.80;;
18364;SDS011;9309;52.126;11.616;2023-02-28T03:05:06;10.40;;;6.57;;
18364;SDS011;9309;52.126;11.616;2023-02-28T03:07:40;7.67;;;6.20;;
18364;SDS011;9309;52.126;11.616;2023-02-28T03:12:55;8.47;;;6.57;;
18364;SDS011;9309;52.126;11.616;2023-02-28T03:15:32;6.33;;;5.73;;
18364;SDS011;9309;52.126;11.616;2023-02-28T03:18:08;6.90;;;6.07;;
18364;SDS011;9309;52.126;11.616;2023-02-28T03:20:40;8.60;;;5.83;;
18364;SDS011;9309;52.126;11.616;2023-02-28T03:23:14;6.73;;;5.40;;
18364;SDS011;9309;52.126;11.616;2023-02-28T03:25:52;7.23;;;6.10;;
18364;SDS011;9309;52.126;11.616;2023-02-28T03:28:25;6.00;;;5.50;;
18364;SDS011;9309;52.126;11.616;2023-02-28T03:30:58;6.20;;;5.10;;
18364;SDS011;9309;52.126;11.616;2023-02-28T03:33:28;11.47;;;6.17;;
18364;SDS011;9309;52.126;11.616;2023-02-28T03:36:00;7.67;;;5.10;;
18364;SDS011;9309;52.126;11.616;2023-02-28T03:38:31;6.47;;;5.23;;
18364;SDS011;9309;52.126;11.616;2023-02-28T03:41:04;10.80;;;6.40;;
18364;SDS011;9309;52.126;11.616;2023-02-28T03:43:35;6.27;;;5.00;;
18364;SDS011;9309;52.126;11.616;2023-02-28T03:46:07;7.37;;;5.20;;
18364;SDS011;9309;52.126;11.616;2023-02-28T03:48:38;5.33;;;4.83;;
18364;SDS011;9309;52.126;11.616;2023-02-28T03:51:10;5.40;;;4.77;;
18364;SDS011;9309;52.126;11.616;2023-02-28T03:53:41;7.23;;;5.30;;
18364;SDS011;9309;52.126;11.616;2023-02-28T03:56:11;6.80;;;5.17;;
18364;SDS011;9309;52.126;11.616;2023-02-28T03:58:43;12.63;;;4.93;;
18364;SDS011;9309;52.126;11.616;2023-02-28T04:01:14;5.50;;;5.03;;
18364;SDS011;9309;52.126;11.616;2023-02-28T04:03:45;8.77;;;5.30;;
18364;SDS011;9309;52.126;11.616;2023-02-28T04:06:14;6.53;;;5.23;;
18364;SDS011;9309;52.126;11.616;2023-02-28T04:08:43;6.30;;;5.70;;
18364;SDS011;9309;52.126;11.616;2023-02-28T04:11:14;10.00;;;4.90;;
18364;SDS011;9309;52.126;11.616;2023-02-28T04:13:48;7.03;;;5.30;;
18364;SDS011;9309;52.126;11.616;2023-02-28T04:16:14;6.53;;;5.30;;
18364;SDS011;9309;52.126;11.616;2023-02-28T04:18:42;6.33;;;5.27;;
18364;SDS011;9309;52.126;11.616;2023-02-28T04:21:09;8.90;;;5.33;;
18364;SDS011;9309;52.126;11.616;2023-02-28T04:23:37;6.47;;;5.50;;
18364;SDS011;9309;52.126;11.616;2023-02-28T04:26:04;8.53;;;5.13;;
18364;SDS011;9309;52.126;11.616;2023-02-28T04:28:31;7.27;;;5.30;;
18364;SDS011;9309;52.126;11.616;2023-02-28T04:30:58;9.80;;;5.17;;
18364;SDS011;9309;52.126;11.616;2023-02-28T04:33:26;6.63;;;5.80;;
18364;SDS011;9309;52.126;11.616;2023-02-28T04:36:00;6.60;;;5.27;;
18364;SDS011;9309;52.126;11.616;2023-02-28T04:38:28;6.73;;;5.03;;
18364;SDS011;9309;52.126;11.616;2023-02-28T04:40:58;7.03;;;5.73;;
18364;SDS011;9309;52.126;11.616;2023-02-28T04:43:25;8.30;;;5.43;;
18364;SDS011;9309;52.126;11.616;2023-02-28T04:45:52;8.97;;;5.50;;
18364;SDS011;9309;52.126;11.616;2023-02-28T04:48:19;5.67;;;4.93;;
18364;SDS011;9309;52.126;11.616;2023-02-28T04:50:46;7.57;;;5.33;;
18364;SDS011;9309;52.126;11.616;2023-02-28T04:53:12;7.17;;;5.33;;
18364;SDS011;9309;52.126;11.616;2023-02-28T04:55:39;7.20;;;5.43;;
18364;SDS011;9309;52.126;11.616;2023-02-28T04:58:07;6.97;;;5.67;;
18364;SDS011;9309;52.126;11.616;2023-02-28T05:00:34;8.37;;;5.90;;
18364;SDS011;9309;52.126;11.616;2023-02-28T05:03:01;13.67;;;6.33;;
18364;SDS011;9309;52.126;11.616;2023-02-28T05:05:27;6.93;;;5.70;;
18364;SDS011;9309;52.126;11.616;2023-02-28T05:07:54;9.87;;;5.73;;
18364;SDS011;9309;52.126;11.616;2023-02-28T05:10:21;10.10;;;4.93;;
18364;SDS011;9309;52.126;11.616;2023-02-28T05:12:48;6.57;;;5.40;;
18364;SDS011;9309;52.126;11.616;2023-02-28T05:15:16;6.23;;;5.50;;
18364;SDS011;9309;52.126;11.616;2023-02-28T05:17:43;6.63;;;5.43;;
18364;SDS011;9309;52.126;11.616;2023-02-28T05:20:10;9.87;;;6.93;;
18364;SDS011;9309;52.126;11.616;2023-02-28T05:22:38;10.07;;;6.33;;
18364;SDS011;9309;52.126;11.616;2023-02-28T05:25:05;11.17;;;7.00;;
18364;SDS011;9309;52.126;11.616;2023-02-28T05:27:33;8.67;;;5.83;;
18364;SDS011;9309;52.126;11.616;2023-02-28T05:29:59;7.23;;;5.60;;
18364;SDS011;9309;52.126;11.616;2023-02-28T05:32:29;8.27;;;5.97;;
18364;SDS011;9309;52.126;11.616;2023-02-28T05:34:56;9.27;;;6.03;;
18364;SDS011;9309;52.126;11.616;2023-02-28T05:37:23;8.10;;;6.03;;
18364;SDS011;9309;52.126;11.616;2023-02-28T05:39:49;8.87;;;6.50;;
18364;SDS011;9309;52.126;11.616;2023-02-28T05:42:16;15.83;;;6.37;;
18364;SDS011;9309;52.126;11.616;2023-02-28T05:44:42;10.13;;;6.30;;
18364;SDS011;9309;52.126;11.616;2023-02-28T05:47:09;9.00;;;6.00;;
18364;SDS011;9309;52.126;11.616;2023-02-28T05:49:39;13.77;;;6.83;;
18364;SDS011;9309;52.126;11.616;2023-02-28T05:52:05;15.43;;;6.50;;
18364;SDS011;9309;52.126;11.616;2023-02-28T05:54:32;7.20;;;6.50;;
18364;SDS011;9309;52.126;11.616;2023-02-28T05:56:59;6.90;;;6.03;;
18364;SDS011;9309;52.126;11.616;2023-02-28T05:59:25;10.20;;;5.90;;
18364;SDS011;9309;52.126;11.616;2023-02-28T06:01:52;6.43;;;5.83;;
18364;SDS011;9309;52.126;11.616;2023-02-28T06:04:19;7.03;;;5.83;;
18364;SDS011;9309;52.126;11.616;2023-02-28T06:06:49;9.53;;;6.20;;
18364;SDS011;9309;52.126;11.616;2023-02-28T06:09:16;10.87;;;7.00;;
18364;SDS011;9309;52.126;11.616;2023-02-28T06:11:44;12.40;;;6.07;;
18364;SDS011;9309;52.126;11.616;2023-02-28T06:14:12;9.10;;;6.03;;
18364;SDS011;9309;52.126;11.616;2023-02-28T06:16:41;8.73;;;6.00;;
18364;SDS011;9309;52.126;11.616;2023-02-28T06:19:08;9.20;;;5.87;;
18364;SDS011;9309;52.126;11.616;2023-02-28T06:21:35;8.87;;;6.13;;
18364;SDS011;9309;52.126;11.616;2023-02-28T06:24:04;9.90;;;6.23;;
18364;SDS011;9309;52.126;11.616;2023-02-28T06:26:31;7.30;;;6.33;;
18364;SDS011;9309;52.126;11.616;2023-02-28T06:28:58;15.23;;;6.67;;
18364;SDS011;9309;52.126;11.616;2023-02-28T06:31:25;15.37;;;6.07;;
18364;SDS011;9309;52.126;11.616;2023-02-28T06:33:54;16.40;;;6.37;;
18364;SDS011;9309;52.126;11.616;2023-02-28T06:36:21;7.63;;;5.70;;
18364;SDS011;9309;52.126;11.616;2023-02-28T06:38:48;9.30;;;6.77;;
18364;SDS011;9309;52.126;11.616;2023-02-28T06:41:20;14.13;;;6.87;;
18364;SDS011;9309;52.126;11.616;2023-02-28T06:43:48;13.53;;;6.77;;
18364;SDS011;9309;52.126;11.616;2023-02-28T06:46:15;15.70;;;7.03;;
18364;SDS011;9309;52.126;11.616;2023-02-28T06:48:42;7.27;;;6.03;;
18364;SDS011;9309;52.126;11.616;2023-02-28T06:51:11;13.13;;;6.97;;
18364;SDS011;9309;52.126;11.616;2023-02-28T06:53:39;9.80;;;6.60;;
18364;SDS011;9309;52.126;11.616;2023-02-28T06:56:06;12.57;;;6.87;;
18364;SDS011;9309;52.126;11.616;2023-02-28T06:58:35;8.27;;;6.50;;
18364;SDS011;9309;52.126;11.616;2023-02-28T07:01:02;11.17;;;6.10;;
18364;SDS011;9309;52.126;11.616;2023-02-28T07:03:29;7.77;;;6.03;;
18364;SDS011;9309;52.126;11.616;2023-02-28T07:05:57;7.67;;;5.80;;
18364;SDS011;9309;52.126;11.616;2023-02-28T07:08:24;7.00;;;6.30;;
18364;SDS011;9309;52.126;11.616;2023-02-28T07:10:52;7.53;;;5.93;;
18364;SDS011;9309;52.126;11.616;2023-02-28T07:13:19;10.63;;;6.33;;
18364;SDS011;9309;52.126;11.616;2023-02-28T07:15:53;10.77;;;6.00;;
18364;SDS011;9309;52.126;11.616;2023-02-28T07:18:20;7.37;;;6.03;;
18364;SDS011;9309;52.126;11.616;2023-02-28T07:20:47;12.10;;;6.50;;
18364;SDS011;9309;52.126;11.616;2023-02-28T07:23:14;7.67;;;6.47;;
18364;SDS011;9309;52.126;11.616;2023-02-28T07:25:41;8.43;;;5.90;;
18364;SDS011;9309;52.126;11.616;2023-02-28T07:28:07;8.53;;;5.93;;
18364;SDS011;9309;52.126;11.616;2023-02-28T07:30:34;10.07;;;6.53;;
18364;SDS011;9309;52.126;11.616;2023-02-28T07:33:02;17.13;;;6.97;;
18364;SDS011;9309;52.126;11.616;2023-02-28T07:35:29;9.10;;;6.20;;
18364;SDS011;9309;52.126;11.616;2023-02-28T07:37:56;9.57;;;6.00;;
18364;SDS011;9309;52.126;11.616;2023-02-28T07:40:23;10.00;;;5.77;;
18364;SDS011;9309;52.126;11.616;2023-02-28T07:42:50;11.20;;;6.37;;
18364;SDS011;9309;52.126;11.616;2023-02-28T07:45:17;7.70;;;5.00;;
18364;SDS011;9309;52.126;11.616;2023-02-28T07:47:44;7.63;;;5.60;;
18364;SDS011;9309;52.126;11.616;2023-02-28T07:50:13;6.33;;;5.57;;
18364;SDS011;9309;52.126;11.616;2023-02-28T07:52:42;7.53;;;5.27;;
18364;SDS011;9309;52.126;11.616;2023-02-28T07:55:09;6.87;;;5.43;;
18364;SDS011;9309;52.126;11.616;2023-02-28T07:57:36;11.23;;;5.67;;
18364;SDS011;9309;52.126;11.616;2023-02-28T08:00:03;8.30;;;5.60;;
18364;SDS011;9309;52.126;11.616;2023-02-28T08:02:36;8.50;;;5.47;;
18364;SDS011;9309;52.126;11.616;2023-02-28T08:05:03;5.77;;;5.17;;
18364;SDS011;9309;52.126;11.616;2023-02-28T08:07:32;5.47;;;5.07;;
18364;SDS011;9309;52.126;11.616;2023-02-28T08:09:58;13.10;;;5.10;;
18364;SDS011;9309;52.126;11.616;2023-02-28T08:12:25;8.27;;;5.67;;
18364;SDS011;9309;52.126;11.616;2023-02-28T08:14:52;6.63;;;4.83;;
18364;SDS011;9309;52.126;11.616;2023-02-28T08:17:19;8.80;;;5.00;;
18364;SDS011;9309;52.126;11.616;2023-02-28T08:19:45;7.43;;;5.30;;
18364;SDS011;9309;52.126;11.616;2023-02-28T08:22:12;9.33;;;5.30;;
18364;SDS011;9309;52.126;11.616;2023-02-28T08:24:41;5.37;;;4.67;;
18364;SDS011;9309;52.126;11.616;2023-02-28T08:27:09;5.03;;;4.63;;
18364;SDS011;9309;52.126;11.616;2023-02-28T08:29:36;5.33;;;4.90;;
18364;SDS011;9309;52.126;11.616;2023-02-28T08:32:03;8.40;;;5.03;;
18364;SDS011;9309;52.126;11.616;2023-02-28T08:34:30;5.07;;;4.67;;
18364;SDS011;9309;52.126;11.616;2023-02-28T08:36:57;5.00;;;4.60;;
18364;SDS011;9309;52.126;11.616;2023-02-28T08:39:24;8.63;;;4.50;;
18364;SDS011;9309;52.126;11.616;2023-02-28T08:41:52;12.90;;;4.83;;
18364;SDS011;9309;52.126;11.616;2023-02-28T08:44:18;5.17;;;4.53;;
18364;SDS011;9309;52.126;11.616;2023-02-28T08:46:45;4.87;;;4.30;;
18364;SDS011;9309;52.126;11.616;2023-02-28T09:01:27;4.00;;;3.70;;
18364;SDS011;9309;52.126;11.616;2023-02-28T09:03:55;4.10;;;3.77;;
18364;SDS011;9309;52.126;11.616;2023-02-28T09:06:23;4.03;;;3.50;;
18364;SDS011;9309;52.126;11.616;2023-02-28T09:08:51;5.53;;;3.57;;
18364;SDS011;9309;52.126;11.616;2023-02-28T09:11:18;5.13;;;3.70;;
18364;SDS011;9309;52.126;11.616;2023-02-28T09:13:45;4.33;;;3.23;;
18364;SDS011;9309;52.126;11.616;2023-02-28T09:16:14;3.87;;;3.63;;
18364;SDS011;9309;52.126;11.616;2023-02-28T09:18:41;4.40;;;3.63;;
18364;SDS011;9309;52.126;11.616;2023-02-28T09:21:09;5.30;;;3.70;;
18364;SDS011;9309;52.126;11.616;2023-02-28T09:23:39;4.40;;;4.00;;
18364;SDS011;9309;52.126;11.616;2023-02-28T09:26:06;3.70;;;3.37;;
18364;SDS011;9309;52.126;11.616;2023-02-28T09:28:33;3.90;;;3.60;;
18364;SDS011;9309;52.126;11.616;2023-02-28T09:31:00;4.20;;;3.90;;
18364;SDS011;9309;52.126;11.616;2023-02-28T09:33:30;8.70;;;3.67;;
18364;SDS011;9309;52.126;11.616;2023-02-28T09:35:59;3.87;;;3.57;;
18364;SDS011;9309;52.126;11.616;2023-02-28T09:38:27;4.97;;;4.00;;
18364;SDS011;9309;52.126;11.616;2023-02-28T09:40:55;4.17;;;3.47;;
18364;SDS011;9309;52.126;11.616;2023-02-28T09:43:25;7.90;;;4.23;;
18364;SDS011;9309;52.126;11.616;2023-02-28T09:45:54;3.60;;;3.40;;
18364;SDS011;9309;52.126;11.616;2023-02-28T09:48:27;4.23;;;3.43;;
18364;SDS011;9309;52.126;11.616;2023-02-28T09:51:02;3.50;;;3.23;;
18364;SDS011;9309;52.126;11.616;2023-02-28T09:53:32;3.47;;;3.27;;
18364;SDS011;9309;52.126;11.616;2023-02-28T09:56:04;3.60;;;3.30;;
18364;SDS011;9309;52.126;11.616;2023-02-28T09:58:35;4.80;;;3.67;;
18364;SDS011;9309;52.126;11.616;2023-02-28T10:01:09;3.67;;;3.47;;
18364;SDS011;9309;52.126;11.616;2023-02-28T10:03:44;5.10;;;3.43;;
18364;SDS011;9309;52.126;11.616;2023-02-28T10:06:23;4.53;;;3.27;;
18364;SDS011;9309;52.126;11.616;2023-02-28T10:08:56;3.77;;;2.97;;
18364;SDS011;9309;52.126;11.616;2023-02-28T10:11:27;3.50;;;3.17;;
18364;SDS011;9309;52.126;11.616;2023-02-28T10:13:56;7.87;;;3.60;;
18364;SDS011;9309;52.126;11.616;2023-02-28T10:16:30;3.70;;;2.70;;
18364;SDS011;9309;52.126;11.616;2023-02-28T10:19:02;2.67;;;2.40;;
18364;SDS011;9309;52.126;11.616;2023-02-28T10:21:35;4.57;;;2.73;;
18364;SDS011;9309;52.126;11.616;2023-02-28T10:24:07;3.23;;;2.97;;
18364;SDS011;9309;52.126;11.616;2023-02-28T10:26:43;3.70;;;2.57;;
18364;SDS011;9309;52.126;11.616;2023-02-28T10:29:11;2.90;;;2.80;;
18364;SDS011;9309;52.126;11.616;2023-02-28T10:31:37;5.47;;;3.10;;
18364;SDS011;9309;52.126;11.616;2023-02-28T10:34:05;2.57;;;2.47;;
18364;SDS011;9309;52.126;11.616;2023-02-28T10:36:34;3.53;;;3.17;;
18364;SDS011;9309;52.126;11.616;2023-02-28T10:39:01;2.70;;;2.60;;
18364;SDS011;9309;52.126;11.616;2023-02-28T10:41:49;2.93;;;2.70;;
18364;SDS011;9309;52.126;11.616;2023-02-28T10:44:17;3.93;;;3.13;;
18364;SDS011;9309;52.126;11.616;2023-02-28T10:46:47;4.07;;;2.50;;
18364;SDS011;9309;52.126;11.616;2023-02-28T10:49:17;5.47;;;3.00;;
18364;SDS011;9309;52.126;11.616;2023-02-28T10:51:46;2.67;;;2.50;;
18364;SDS011;9309;52.126;11.616;2023-02-28T10:54:18;2.37;;;2.27;;
18364;SDS011;9309;52.126;11.616;2023-02-28T10:59:38;2.40;;;2.30;;
18364;SDS011;9309;52.126;11.616;2023-02-28T11:02:17;2.80;;;2.70;;
18364;SDS011;9309;52.126;11.616;2023-02-28T11:04:57;3.40;;;3.10;;
18364;SDS011;9309;52.126;11.616;2023-02-28T11:07:24;6.73;;;3.10;;
18364;SDS011;9309;52.126;11.616;2023-02-28T11:09:53;3.20;;;3.00;;
18364;SDS011;9309;52.126;11.616;2023-02-28T11:12:23;3.30;;;3.00;;
18364;SDS011;9309;52.126;11.616;2023-02-28T11:14:55;3.33;;;2.53;;
18364;SDS011;9309;52.126;11.616;2023-02-28T11:17:24;2.93;;;2.73;;
18364;SDS011;9309;52.126;11.616;2023-02-28T11:19:53;3.40;;;3.00;;
18364;SDS011;9309;52.126;11.616;2023-02-28T11:22:23;3.23;;;2.80;;
18364;SDS011;9309;52.126;11.616;2023-02-28T11:24:54;4.30;;;2.60;;
18364;SDS011;9309;52.126;11.616;2023-02-28T11:27:26;2.93;;;2.80;;
18364;SDS011;9309;52.126;11.616;2023-02-28T11:30:23;3.30;;;2.97;;
18364;SDS011;9309;52.126;11.616;2023-02-28T11:32:50;3.53;;;2.60;;
18364;SDS011;9309;52.126;11.616;2023-02-28T11:35:18;2.80;;;2.60;;
18364;SDS011;9309;52.126;11.616;2023-02-28T11:37:49;3.27;;;2.90;;
18364;SDS011;9309;52.126;11.616;2023-02-28T11:40:17;3.33;;;2.70;;
18364;SDS011;9309;52.126;11.616;2023-02-28T11:42:52;2.87;;;2.67;;
18364;SDS011;9309;52.126;11.616;2023-02-28T11:45:31;2.70;;;2.50;;
18364;SDS011;9309;52.126;11.616;2023-02-28T11:48:10;3.90;;;3.33;;
18364;SDS011;9309;52.126;11.616;2023-02-28T11:50:46;3.00;;;2.80;;
18364;SDS011;9309;52.126;11.616;2023-02-28T11:53:22;3.53;;;2.90;;
18364;SDS011;9309;52.126;11.616;2023-02-28T11:56:03;2.67;;;2.47;;
18364;SDS011;9309;52.126;11.616;2023-02-28T11:58:39;3.67;;;2.60;;
18364;SDS011;9309;52.126;11.616;2023-02-28T12:01:19;4.03;;;2.33;;
18364;SDS011;9309;52.126;11.616;2023-02-28T12:03:58;3.23;;;2.70;;
18364;SDS011;9309;52.126;11.616;2023-02-28T12:06:36;2.80;;;2.60;;
18364;SDS011;9309;52.126;11.616;2023-02-28T12:09:20;2.43;;;2.33;;
18364;SDS011;9309;52.126;11.616;2023-02-28T12:12:13;2.47;;;2.27;;
18364;SDS011;9309;52.126;11.616;2023-02-28T12:15:04;2.50;;;2.40;;
18364;SDS011;9309;52.126;11.616;2023-02-28T12:17:46;2.23;;;2.13;;
18364;SDS011;9309;52.126;11.616;2023-02-28T12:20:22;2.40;;;2.30;;
18364;SDS011;9309;52.126;11.616;2023-02-28T12:22:55;2.40;;;2.30;;
18364;SDS011;9309;52.126;11.616;2023-02-28T12:25:53;2.60;;;2.40;;
18364;SDS011;9309;52.126;11.616;2023-02-28T12:28:28;4.70;;;2.70;;
18364;SDS011;9309;52.126;11.616;2023-02-28T12:31:01;2.70;;;2.53;;
18364;SDS011;9309;52.126;11.616;2023-02-28T12:33:32;2.47;;;2.38;;
18364;SDS011;9309;52.126;11.616;2023-02-28T12:36:03;2.40;;;2.30;;
18364;SDS011;9309;52.126;11.616;2023-02-28T12:38:36;2.67;;;2.47;;
18364;SDS011;9309;52.126;11.616;2023-02-28T12:41:09;2.70;;;2.50;;
18364;SDS011;9309;52.126;11.616;2023-02-28T12:43:40;3.03;;;2.47;;
18364;SDS011;9309;52.126;11.616;2023-02-28T12:46:12;2.90;;;2.70;;
18364;SDS011;9309;52.126;11.616;2023-02-28T12:48:44;2.77;;;2.57;;
18364;SDS011;9309;52.126;11.616;2023-02-28T12:51:14;2.60;;;2.40;;
18364;SDS011;9309;52.126;11.616;2023-02-28T12:53:49;4.33;;;2.40;;
18364;SDS011;9309;52.126;11.616;2023-02-28T12:56:24;2.83;;;2.70;;
18364;SDS011;9309;52.126;11.616;2023-02-28T12:58:59;2.50;;;2.40;;
18364;SDS011;9309;52.126;11.616;2023-02-28T13:01:33;2.70;;;2.50;;
18364;SDS011;9309;52.126;11.616;2023-02-28T13:04:18;2.83;;;2.40;;
18364;SDS011;9309;52.126;11.616;2023-02-28T13:07:08;2.60;;;2.50;;
18364;SDS011;9309;52.126;11.616;2023-02-28T13:09:51;2.37;;;2.17;;
18364;SDS011;9309;52.126;11.616;2023-02-28T13:12:20;2.50;;;2.40;;
18364;SDS011;9309;52.126;11.616;2023-02-28T13:14:47;3.00;;;2.78;;
18364;SDS011;9309;52.126;11.616;2023-02-28T13:17:17;2.65;;;2.50;;
18364;SDS011;9309;52.126;11.616;2023-02-28T13:19:46;2.70;;;2.55;;
18364;SDS011;9309;52.126;11.616;2023-02-28T13:22:36;3.90;;;2.80;;
18364;SDS011;9309;52.126;11.616;2023-02-28T13:31:32;2.38;;;2.22;;
18364;SDS011;9309;52.126;11.616;2023-02-28T13:34:13;3.10;;;2.85;;
18364;SDS011;9309;52.126;11.616;2023-02-28T13:36:41;2.55;;;2.45;;
18364;SDS011;9309;52.126;11.616;2023-02-28T13:42:22;2.80;;;2.50;;
18364;SDS011;9309;52.126;11.616;2023-02-28T13:47:52;4.43;;;2.53;;
18364;SDS011;9309;52.126;11.616;2023-02-28T13:50:30;2.70;;;2.50;;
18364;SDS011;9309;52.126;11.616;2023-02-28T13:53:21;2.92;;;2.72;;
18364;SDS011;9309;52.126;11.616;2023-02-28T13:56:09;3.72;;;3.15;;
18364;SDS011;9309;52.126;11.616;2023-02-28T13:58:50;3.00;;;2.80;;
18364;SDS011;9309;52.126;11.616;2023-02-28T14:01:27;5.15;;;2.80;;
18364;SDS011;9309;52.126;11.616;2023-02-28T14:04:21;2.58;;;2.42;;
18364;SDS011;9309;52.126;11.616;2023-02-28T14:07:06;2.50;;;2.40;;
18364;SDS011;9309;52.126;11.616;2023-02-28T14:09:37;3.33;;;3.03;;
18364;SDS011;9309;52.126;11.616;2023-02-28T14:15:25;2.77;;;2.63;;
18364;SDS011;9309;52.126;11.616;2023-02-28T14:17:56;5.00;;;3.10;;
18364;SDS011;9309;52.126;11.616;2023-02-28T14:20:25;2.90;;;2.70;;
18364;SDS011;9309;52.126;11.616;2023-02-28T14:22:57;4.30;;;3.10;;
18364;SDS011;9309;52.126;11.616;2023-02-28T14:25:33;3.20;;;3.00;;
18364;SDS011;9309;52.126;11.616;2023-02-28T14:28:10;4.37;;;3.10;;
18364;SDS011;9309;52.126;11.616;2023-02-28T14:30:51;3.70;;;3.40;;
18364;SDS011;9309;52.126;11.616;2023-02-28T14:33:26;3.20;;;2.90;;
18364;SDS011;9309;52.126;11.616;2023-02-28T14:36:04;3.17;;;2.97;;
18364;SDS011;9309;52.126;11.616;2023-02-28T14:38:41;3.80;;;3.50;;
18364;SDS011;9309;52.126;11.616;2023-02-28T14:41:14;3.77;;;3.30;;
18364;SDS011;9309;52.126;11.616;2023-02-28T14:43:49;3.63;;;3.40;;
18364;SDS011;9309;52.126;11.616;2023-02-28T14:46:18;3.43;;;3.13;;
18364;SDS011;9309;52.126;11.616;2023-02-28T14:48:45;3.63;;;3.20;;
18364;SDS011;9309;52.126;11.616;2023-02-28T14:51:17;4.80;;;3.37;;
18364;SDS011;9309;52.126;11.616;2023-02-28T14:53:49;5.03;;;4.00;;
18364;SDS011;9309;52.126;11.616;2023-02-28T14:56:23;3.97;;;3.60;;
18364;SDS011;9309;52.126;11.616;2023-02-28T14:58:52;4.17;;;3.60;;
18364;SDS011;9309;52.126;11.616;2023-02-28T15:01:22;4.43;;;3.87;;
18364;SDS011;9309;52.126;11.616;2023-02-28T15:03:56;4.13;;;3.70;;
18364;SDS011;9309;52.126;11.616;2023-02-28T15:06:24;3.50;;;3.30;;
18364;SDS011;9309;52.126;11.616;2023-02-28T15:11:46;3.30;;;3.00;;
18364;SDS011;9309;52.126;11.616;2023-02-28T15:14:17;5.27;;;3.73;;
18364;SDS011;9309;52.126;11.616;2023-02-28T15:16:46;4.17;;;3.67;;
18364;SDS011;9309;52.126;11.616;2023-02-28T15:19:19;4.43;;;3.73;;
18364;SDS011;9309;52.126;11.616;2023-02-28T15:21:50;4.53;;;3.63;;
18364;SDS011;9309;52.126;11.616;2023-02-28T15:24:21;4.40;;;4.00;;
18364;SDS011;9309;52.126;11.616;2023-02-28T15:26:57;4.07;;;3.70;;
18364;SDS011;9309;52.126;11.616;2023-02-28T15:29:25;4.17;;;3.60;;
18364;SDS011;9309;52.126;11.616;2023-02-28T15:31:55;4.00;;;3.60;;
18364;SDS011;9309;52.126;11.616;2023-02-28T15:34:26;10.03;;;4.70;;
18364;SDS011;9309;52.126;11.616;2023-02-28T15:36:55;4.00;;;3.60;;
18364;SDS011;9309;52.126;11.616;2023-02-28T15:39:23;4.17;;;3.83;;
18364;SDS011;9309;52.126;11.616;2023-02-28T15:41:52;4.43;;;4.03;;
18364;SDS011;9309;52.126;11.616;2023-02-28T15:44:36;5.60;;;4.40;;
18364;SDS011;9309;52.126;11.616;2023-02-28T15:47:03;4.40;;;4.00;;
18364;SDS011;9309;52.126;11.616;2023-02-28T15:49:34;6.53;;;3.73;;